Time;durP1;ratioP1;P1;durP2;ratioP2;P2;SDS_P1;SDS_P2;PMS_P1;PMS_P2;Temp;Humidity;BMP_temperature;BMP_pressure;BME280_temperature;BME280_humidity;BME280_pressure;Samples;Min_cycle;Max_cycle;Signal;HPM_P1;HPM_P2
2023/10/17 00:01:23;;;;;;;34.40;24.00;;;;;;;5.64;77.99;97660.94;107909;1247;99135;-73
2023/10/17 00:03:53;;;;;;;37.30;24.30;;;;;;;5.64;78.13;97661.11;107376;1240;99386;-74
2023/10/17 00:06:22;;;;;;;34.70;23.00;;;;;;;5.65;78.20;97658.16;107929;1233;102432;-74
2023/10/17 00:08:50;;;;;;;34.30;22.70;;;;;;;5.65;78.20;97658.60;107917;1246;101154;-74
2023/10/17 00:11:17;;;;;;;32.00;22.90;;;;;;;5.67;78.20;97656.07;107878;1234;100003;-73
2023/10/17 00:14:00;;;;;;;34.70;23.40;;;;;;;5.68;78.17;97658.06;107808;1241;97939;-74
2023/10/17 00:16:29;;;;;;;34.40;22.90;;;;;;;5.69;78.26;97654.58;107992;1234;98400;-77
2023/10/17 00:18:57;;;;;;;33.10;22.10;;;;;;;5.68;78.25;97649.03;107853;1237;102562;-77
2023/10/17 00:21:25;;;;;;;35.00;23.60;;;;;;;5.67;78.35;97645.03;107972;1236;101152;-78
2023/10/17 00:23:52;;;;;;;32.60;22.00;;;;;;;5.66;78.25;97644.64;107889;1239;99151;-78
2023/10/17 00:26:20;;;;;;;33.30;23.10;;;;;;;5.65;78.31;97643.33;107224;1239;98069;-73
2023/10/17 00:28:48;;;;;;;34.80;23.40;;;;;;;5.62;78.33;97642.70;107354;1238;98068;-74
2023/10/17 00:31:16;;;;;;;36.00;22.70;;;;;;;5.61;78.37;97640.39;107021;1253;103588;-80
2023/10/17 00:33:43;;;;;;;33.70;22.80;;;;;;;5.62;78.50;97639.92;107264;1244;98044;-80
2023/10/17 00:36:16;;;;;;;36.20;24.70;;;;;;;5.63;78.52;97633.89;107250;1246;98507;-81
2023/10/17 00:38:43;;;;;;;34.40;23.60;;;;;;;5.64;78.62;97634.42;107119;1244;98079;-81
2023/10/17 00:41:16;;;;;;;29.00;22.90;;;;;;;5.65;78.42;97638.61;107320;1241;98052;-81
2023/10/17 00:43:42;;;;;;;27.00;21.50;;;;;;;5.65;78.51;97634.92;107281;1248;103553;-81
2023/10/17 00:46:09;;;;;;;30.10;21.20;;;;;;;5.66;78.48;97635.02;107266;1246;97967;-75
2023/10/17 00:48:37;;;;;;;30.60;22.50;;;;;;;5.65;78.52;97636.88;107285;1239;97972;-75
2023/10/17 00:51:08;;;;;;;31.60;21.90;;;;;;;5.65;78.48;97637.54;107319;1251;98089;-75
2023/10/17 00:53:39;;;;;;;27.40;22.40;;;;;;;5.64;78.56;97634.83;107367;1242;97998;-75
2023/10/17 00:56:07;;;;;;;31.50;21.50;;;;;;;5.62;78.57;97637.02;107324;1246;103287;-75
2023/10/17 00:58:34;;;;;;;29.10;20.80;;;;;;;5.59;78.50;97636.65;107413;1241;100262;-75
2023/10/17 01:01:09;;;;;;;29.60;20.70;;;;;;;5.58;78.59;97639.30;107846;1235;97964;-75
2023/10/17 01:03:43;;;;;;;31.00;22.40;;;;;;;5.57;78.62;97637.42;107865;1237;99132;-81
2023/10/17 01:06:23;;;;;;;29.20;20.20;;;;;;;5.55;78.63;97636.48;107891;1236;98442;-81
2023/10/17 01:08:50;;;;;;;27.10;19.60;;;;;;;5.54;78.72;97636.52;107515;1248;103416;-81
2023/10/17 01:11:21;;;;;;;29.40;19.70;;;;;;;5.55;78.68;97634.81;107414;1248;99051;-81
2023/10/17 01:13:52;;;;;;;24.40;20.00;;;;;;;5.57;78.77;97639.40;107937;1246;101203;-81
2023/10/17 01:16:20;;;;;;;24.20;18.80;;;;;;;5.58;78.86;97638.36;107920;1238;98593;-75
2023/10/17 01:18:47;;;;;;;27.00;17.90;;;;;;;5.58;78.85;97642.44;107462;1242;98420;-76
2023/10/17 01:21:18;;;;;;;24.40;18.40;;;;;;;5.57;78.90;97639.33;107833;1239;99635;-75
2023/10/17 01:23:45;;;;;;;26.20;18.70;;;;;;;5.57;78.95;97637.42;107959;1246;100200;-80
2023/10/17 01:26:20;;;;;;;26.80;18.80;;;;;;;5.56;78.93;97637.33;107940;1247;98004;-80
2023/10/17 01:28:51;;;;;;;25.00;18.40;;;;;;;5.55;78.98;97638.55;107870;1244;98041;-80
2023/10/17 01:31:22;;;;;;;22.60;18.00;;;;;;;5.54;78.99;97638.20;108006;1241;98433;-74
2023/10/17 01:33:51;;;;;;;24.90;18.10;;;;;;;5.53;79.03;97638.46;107934;1246;103777;-74
2023/10/17 01:36:19;;;;;;;23.40;17.00;;;;;;;5.53;79.10;97641.48;107541;1248;100220;-73
2023/10/17 01:38:49;;;;;;;24.10;17.50;;;;;;;5.53;79.19;97642.89;107918;1237;99537;-74
2023/10/17 01:41:19;;;;;;;26.70;18.20;;;;;;;5.53;79.20;97643.95;107992;1236;97905;-73
2023/10/17 01:43:50;;;;;;;25.10;17.50;;;;;;;5.53;79.21;97646.84;107893;1233;98467;-74
2023/10/17 01:46:21;;;;;;;24.60;17.50;;;;;;;5.53;79.26;97646.51;107434;1238;102768;-75
2023/10/17 01:48:48;;;;;;;23.30;17.40;;;;;;;5.53;79.20;97645.20;107845;1236;101244;-75
2023/10/17 01:51:19;;;;;;;25.10;17.20;;;;;;;5.53;79.29;97645.23;107929;1244;99648;-75
2023/10/17 01:53:51;;;;;;;23.50;17.00;;;;;;;5.52;79.25;97646.57;107875;1237;99132;-76
2023/10/17 01:56:25;;;;;;;22.70;16.00;;;;;;;5.51;79.34;97649.15;107921;1237;97930;-75
2023/10/17 01:58:55;;;;;;;22.60;16.70;;;;;;;5.52;79.34;97649.31;107437;1248;103482;-75
2023/10/17 02:01:25;;;;;;;25.50;16.90;;;;;;;5.52;79.44;97652.05;107398;1242;101325;-75
2023/10/17 02:04:01;;;;;;;24.30;16.90;;;;;;;5.52;79.38;97656.04;107397;1248;109475;-80
2023/10/17 02:06:30;;;;;;;24.90;17.30;;;;;;;5.51;79.35;97655.20;107280;1244;99038;-80
2023/10/17 02:08:58;;;;;;;24.10;16.20;;;;;;;5.51;79.43;97658.45;107232;1246;98388;-79
2023/10/17 02:11:26;;;;;;;22.90;15.80;;;;;;;5.52;79.51;97659.63;107307;1253;103152;-80
2023/10/17 02:13:56;;;;;;;23.60;16.40;;;;;;;5.52;79.50;97661.10;107265;1244;101021;-80
2023/10/17 02:16:28;;;;;;;21.60;16.00;;;;;;;5.52;79.54;97660.52;107287;1242;99831;-80
2023/10/17 02:18:56;;;;;;;20.20;15.50;;;;;;;5.51;79.60;97660.92;107388;1247;98139;-80
2023/10/17 02:21:23;;;;;;;19.90;15.60;;;;;;;5.51;79.55;97659.96;107416;1242;98353;-80
2023/10/17 02:23:49;;;;;;;19.90;13.70;;;;;;;5.52;79.66;97661.42;107406;1244;98066;-80
2023/10/17 02:26:23;;;;;;;18.10;14.50;;;;;;;5.52;79.71;97659.76;107327;1242;98097;-81
2023/10/17 02:28:50;;;;;;;22.60;14.50;;;;;;;5.54;79.72;97659.59;106992;1253;99830;-80
2023/10/17 02:31:27;;;;;;;17.40;14.00;;;;;;;5.54;79.71;97662.83;107320;1252;98005;-75
2023/10/17 02:33:54;;;;;;;22.00;14.70;;;;;;;5.54;79.82;97660.13;107323;1253;99053;-75
2023/10/17 02:36:20;;;;;;;17.10;13.80;;;;;;;5.54;79.81;97660.63;107398;1239;97998;-75
2023/10/17 02:38:47;;;;;;;18.40;13.80;;;;;;;5.55;79.87;97660.93;107831;1238;97977;-75
2023/10/17 02:41:18;;;;;;;22.50;15.30;;;;;;;5.55;79.87;97662.30;107893;1236;97951;-81
2023/10/17 02:43:53;;;;;;;20.40;14.00;;;;;;;5.56;79.91;97658.96;107889;1238;98000;-74
2023/10/17 02:46:21;;;;;;;17.80;14.20;;;;;;;5.56;79.92;97660.89;107988;1238;98407;-74
2023/10/17 02:48:48;;;;;;;19.30;14.10;;;;;;;5.57;79.95;97658.28;107458;1240;104239;-74
2023/10/17 02:51:31;;;;;;;21.10;15.20;;;;;;;5.57;79.94;97661.83;107473;1241;98408;-74
2023/10/17 02:53:58;;;;;;;19.90;14.30;;;;;;;5.58;79.96;97663.23;107469;1243;99089;-74
2023/10/17 02:56:26;;;;;;;21.40;13.50;;;;;;;5.59;79.98;97663.29;107924;1246;99018;-74
2023/10/17 02:59:04;;;;;;;19.80;13.70;;;;;;;5.59;79.95;97663.30;107496;1244;98093;-78
2023/10/17 03:01:32;;;;;;;19.00;12.80;;;;;;;5.58;80.01;97663.23;107811;1239;101881;-78
2023/10/17 03:03:59;;;;;;;17.90;12.60;;;;;;;5.58;80.05;97665.10;107538;1241;101598;-78
2023/10/17 03:06:26;;;;;;;17.60;13.30;;;;;;;5.58;79.90;97666.95;107973;1236;99672;-78
2023/10/17 03:09:00;;;;;;;17.60;13.40;;;;;;;5.58;79.98;97668.71;107481;1248;98130;-78
2023/10/17 03:11:35;;;;;;;20.20;14.00;;;;;;;5.58;80.03;97675.52;107908;1238;99651;-77
2023/10/17 03:14:12;;;;;;;22.70;14.70;;;;;;;5.57;80.03;97672.23;107906;1237;102425;-78
2023/10/17 03:16:40;;;;;;;19.20;13.20;;;;;;;5.56;80.18;97678.61;107955;1246;100268;-76
2023/10/17 03:19:08;;;;;;;18.20;13.50;;;;;;;5.54;80.13;97681.84;107498;1238;99769;-80
2023/10/17 03:21:34;;;;;;;18.70;13.90;;;;;;;5.52;80.07;97683.73;107891;1236;97908;-81
2023/10/17 03:24:05;;;;;;;21.30;14.20;;;;;;;5.52;80.15;97683.48;107907;1239;97908;-80
2023/10/17 03:26:39;;;;;;;16.90;12.50;;;;;;;5.53;80.19;97684.99;107937;1237;103503;-81
2023/10/17 03:29:14;;;;;;;19.00;14.10;;;;;;;5.53;80.24;97685.44;107924;1237;100274;-81
2023/10/17 03:31:42;;;;;;;19.90;13.70;;;;;;;5.53;80.33;97683.12;107910;1237;99807;-74
2023/10/17 03:34:12;;;;;;;21.50;15.10;;;;;;;5.53;80.33;97680.04;107389;1240;98008;-74
2023/10/17 03:36:49;;;;;;;18.40;14.80;;;;;;;5.53;80.32;97682.52;107448;1238;98417;-74
2023/10/17 03:39:21;;;;;;;22.80;15.60;;;;;;;5.54;80.40;97685.46;107165;1248;102629;-74
2023/10/17 03:41:56;;;;;;;20.00;15.50;;;;;;;5.54;80.30;97682.58;107439;1248;107654;-74
2023/10/17 03:44:30;;;;;;;19.30;14.00;;;;;;;5.53;80.24;97678.94;107930;1246;99945;-74
2023/10/17 03:46:59;;;;;;;21.00;14.00;;;;;;;5.52;80.34;97680.27;107441;1243;99141;-74
2023/10/17 03:49:36;;;;;;;20.40;14.00;;;;;;;5.53;80.33;97676.29;108042;1236;98352;-74
2023/10/17 03:52:04;;;;;;;18.70;13.90;;;;;;;5.53;80.33;97679.00;107930;1248;103406;-74
2023/10/17 03:54:31;;;;;;;21.60;15.20;;;;;;;5.52;80.35;97687.94;107950;1234;99968;-74
2023/10/17 03:57:02;;;;;;;22.70;14.80;;;;;;;5.52;80.38;97685.73;107897;1247;97882;-76
2023/10/17 03:59:37;;;;;;;19.50;15.40;;;;;;;5.50;80.39;97681.98;107565;1243;97921;-78
2023/10/17 04:02:04;;;;;;;19.90;15.80;;;;;;;5.50;80.42;97683.36;107961;1236;98416;-74
2023/10/17 04:04:35;;;;;;;20.80;15.70;;;;;;;5.51;80.48;97676.72;107897;1238;97917;-74
2023/10/17 04:07:06;;;;;;;23.60;15.30;;;;;;;5.49;80.44;97678.34;107942;1239;100233;-75
2023/10/17 04:09:41;;;;;;;24.20;16.30;;;;;;;5.49;80.50;97682.98;107870;1239;99918;-74
2023/10/17 04:12:09;;;;;;;22.80;16.30;;;;;;;5.49;80.56;97685.12;107445;1238;98446;-75
2023/10/17 04:14:50;;;;;;;26.30;17.30;;;;;;;5.49;80.63;97680.11;107892;1237;98460;-74
2023/10/17 04:17:23;;;;;;;22.40;17.00;;;;;;;5.50;80.64;97680.58;107267;1244;103433;-77
2023/10/17 04:19:49;;;;;;;26.50;18.20;;;;;;;5.49;80.71;97678.67;107920;1236;100216;-78
2023/10/17 04:22:19;;;;;;;22.20;15.60;;;;;;;5.49;80.75;97674.29;107771;1246;97899;-77
2023/10/17 04:24:47;;;;;;;22.00;15.20;;;;;;;5.48;80.81;97673.83;107795;1236;97908;-78
2023/10/17 04:27:22;;;;;;;19.90;15.20;;;;;;;5.50;80.79;97673.09;107258;1245;98339;-78
2023/10/17 04:29:51;;;;;;;18.70;14.70;;;;;;;5.52;80.86;97673.58;107475;1242;102460;-78
2023/10/17 04:32:19;;;;;;;19.30;15.50;;;;;;;5.53;80.91;97669.02;107442;1241;100186;-78
2023/10/17 04:34:46;;;;;;;18.50;14.60;;;;;;;5.54;80.85;97673.52;107426;1241;99155;-75
2023/10/17 04:37:16;;;;;;;20.00;15.40;;;;;;;5.55;80.76;97672.80;107095;1255;99577;-75
2023/10/17 04:39:50;;;;;;;26.90;15.70;;;;;;;5.56;80.75;97669.30;107128;1245;98456;-75
2023/10/17 04:42:25;;;;;;;20.90;15.30;;;;;;;5.56;80.72;97670.16;106922;1248;103376;-75
2023/10/17 04:44:52;;;;;;;19.20;14.90;;;;;;;5.56;80.76;97669.33;106871;1246;101237;-75
2023/10/17 04:47:30;;;;;;;20.80;14.40;;;;;;;5.55;80.82;97671.55;107140;1256;98085;-80
2023/10/17 04:49:56;;;;;;;21.30;15.60;;;;;;;5.54;80.79;97671.54;107064;1245;98585;-79
2023/10/17 04:52:29;;;;;;;21.20;15.10;;;;;;;5.53;80.77;97670.20;107123;1255;98075;-77
2023/10/17 04:55:01;;;;;;;;;;;;;;;5.51;80.66;97670.20;107093;1245;103466;-79
2023/10/17 05:00:10;;;;;;;22.00;15.80;;;;;;;5.47;80.79;97676.77;107302;1242;99915;-80
2023/10/17 05:02:38;;;;;;;19.70;14.80;;;;;;;5.46;80.74;97674.22;107274;1242;97972;-74
2023/10/17 05:08:11;;;;;;;21.90;15.30;;;;;;;5.41;80.75;97673.52;107347;1248;102460;-74
2023/10/17 06:16:54;;;;;;;25.20;18.20;;;;;;;4.95;80.67;97758.70;107918;1238;102608;-78
2023/10/17 06:19:21;;;;;;;31.70;22.60;;;;;;;4.99;80.78;97757.02;107779;1247;189752;-78
2023/10/17 06:30:29;;;;;;;23.20;17.00;;;;;;;5.24;80.25;97766.04;106980;1255;102507;-76
2023/10/17 06:35:52;;;;;;;25.00;15.10;;;;;;;5.39;79.82;97769.06;107206;1246;99074;-75
2023/10/17 06:38:27;;;;;;;24.20;15.70;;;;;;;5.48;79.72;97768.00;107280;1246;98078;-75
2023/10/17 06:41:11;;;;;;;24.90;16.70;;;;;;;5.56;79.69;97771.39;107263;1241;98541;-75
2023/10/17 06:43:39;;;;;;;20.60;15.10;;;;;;;5.64;79.57;97771.42;106956;1255;102460;-75
2023/10/17 06:46:11;;;;;;;23.80;15.50;;;;;;;5.71;79.32;97775.94;106861;1248;100290;-81
2023/10/17 06:48:48;;;;;;;22.70;15.00;;;;;;;5.80;79.19;97777.82;106823;1259;99470;-81
2023/10/17 06:51:36;;;;;;;22.00;15.00;;;;;;;5.88;79.32;97781.58;106409;1253;98846;-77
2023/10/17 06:54:06;;;;;;;23.40;15.00;;;;;;;5.94;79.22;97784.48;106843;1248;99262;-77
2023/10/17 06:56:39;;;;;;;25.90;16.50;;;;;;;6.01;79.18;97779.19;107135;1242;103467;-78
2023/10/17 06:59:15;;;;;;;23.50;16.00;;;;;;;6.10;79.28;97778.85;107369;1252;108510;-78
2023/10/17 07:01:48;;;;;;;22.40;15.90;;;;;;;6.18;79.20;97776.70;107337;1250;99074;-74
2023/10/17 07:04:14;;;;;;;23.40;14.90;;;;;;;6.25;79.01;97778.05;107310;1242;98108;-74
2023/10/17 07:06:40;;;;;;;20.50;13.40;;;;;;;6.32;78.86;97780.66;107309;1245;97994;-74
2023/10/17 07:09:16;;;;;;;26.30;14.80;;;;;;;6.37;78.61;97773.00;107347;1245;98241;-74
2023/10/17 07:11:47;;;;;;;22.20;15.20;;;;;;;6.41;78.44;97774.20;107196;1245;101398;-80
2023/10/17 07:14:23;;;;;;;22.20;14.70;;;;;;;6.47;78.41;97774.41;107301;1253;100175;-81
2023/10/17 07:16:57;;;;;;;22.90;14.70;;;;;;;6.57;78.35;97772.61;107380;1243;97916;-81
2023/10/17 07:22:11;;;;;;;20.30;14.10;;;;;;;6.68;77.48;97772.02;107460;1248;102230;-81
2023/10/17 07:24:42;;;;;;;21.80;13.70;;;;;;;6.74;77.51;97768.23;107954;1238;101529;-80
2023/10/17 07:27:18;;;;;;;19.20;14.20;;;;;;;6.84;77.20;97764.51;107868;1237;107021;-81
2023/10/17 07:29:58;;;;;;;23.00;13.90;;;;;;;6.95;76.91;97762.29;107607;1242;97997;-76
2023/10/17 07:32:32;;;;;;;21.50;14.30;;;;;;;7.06;76.58;97758.67;107863;1238;98413;-79
2023/10/17 07:35:01;;;;;;;18.30;13.40;;;;;;;7.17;76.51;97760.89;107892;1246;102159;-78
2023/10/17 07:37:33;;;;;;;19.90;13.40;;;;;;;7.31;76.31;97762.20;107662;1249;100196;-78
2023/10/17 07:40:21;;;;;;;22.30;12.30;;;;;;;7.48;76.13;97760.92;107913;1248;98607;-79
2023/10/17 07:42:48;;;;;;;23.40;12.20;;;;;;;7.67;75.89;97758.07;107932;1246;97875;-78
2023/10/17 07:45:15;;;;;;;19.70;11.30;;;;;;;7.89;75.64;97754.47;107919;1245;98740;-78
2023/10/17 07:47:43;;;;;;;18.00;11.70;;;;;;;8.14;75.23;97753.79;107537;1242;97915;-74
2023/10/17 07:50:13;;;;;;;14.60;11.50;;;;;;;8.33;74.57;97751.45;107571;1241;99297;-75
2023/10/17 07:52:43;;;;;;;18.60;12.30;;;;;;;8.40;74.16;97752.65;106980;1243;99858;-74
2023/10/17 07:55:22;;;;;;;19.70;12.60;;;;;;;8.47;73.84;97754.96;107477;1241;98086;-74
2023/10/17 07:57:52;;;;;;;18.50;11.50;;;;;;;8.64;73.46;97752.48;107533;1241;98339;-75
2023/10/17 08:00:26;;;;;;;17.10;11.30;;;;;;;8.82;73.07;97752.70;107273;1252;102483;-74
2023/10/17 08:03:00;;;;;;;17.70;12.60;;;;;;;8.94;73.13;97749.38;107114;1255;100215;-75
2023/10/17 08:05:36;;;;;;;16.50;12.10;;;;;;;9.05;72.74;97750.52;107225;1252;100073;-74
2023/10/17 08:08:08;;;;;;;19.70;13.00;;;;;;;9.01;72.19;97752.06;106885;1248;98025;-78
2023/10/17 08:10:39;;;;;;;25.70;16.50;;;;;;;8.97;72.20;97748.17;106814;1249;98387;-78
2023/10/17 08:13:07;;;;;;;23.10;16.30;;;;;;;8.98;72.25;97748.23;106559;1260;98099;-78
2023/10/17 08:15:38;;;;;;;24.20;14.50;;;;;;;9.04;72.27;97745.18;106793;1251;101392;-78
2023/10/17 08:18:14;;;;;;;20.90;14.40;;;;;;;9.20;72.13;97740.67;106653;1253;98578;-78
2023/10/17 08:21:33;;;;;;;22.40;14.90;;;;;;;9.34;71.84;97741.24;107036;1246;98103;-79
2023/10/17 08:23:55;;;;;;;18.90;13.10;;;;;;;9.46;71.29;97742.20;107015;1247;98427;-79
2023/10/17 08:26:28;;;;;;;18.60;13.20;;;;;;;9.51;71.12;97742.31;106991;1253;98105;-75
2023/10/17 08:28:56;;;;;;;17.30;11.80;;;;;;;9.68;70.98;97745.80;106690;1249;101178;-75
2023/10/17 08:31:23;;;;;;;17.70;11.70;;;;;;;9.87;70.57;97745.75;107073;1253;99916;-75
2023/10/17 08:34:08;;;;;;;16.60;11.50;;;;;;;9.99;70.26;97743.62;107370;1251;99170;-75
2023/10/17 08:36:48;;;;;;;14.60;9.60;;;;;;;10.26;70.09;97742.19;107075;1242;98440;-75
2023/10/17 08:39:51;;;;;;;15.70;10.00;;;;;;;10.53;69.28;97736.33;107079;1249;103401;-75
2023/10/17 08:42:30;;;;;;;20.20;11.40;;;;;;;10.65;68.66;97733.04;107097;1254;101231;-75
2023/10/17 08:45:04;;;;;;;13.20;10.50;;;;;;;10.74;68.36;97733.84;107041;1253;99840;-75
2023/10/17 08:47:30;;;;;;;14.10;9.70;;;;;;;10.82;68.08;97738.27;106919;1256;98084;-75
2023/10/17 08:50:03;;;;;;;19.30;9.40;;;;;;;10.77;67.88;97738.30;107308;1252;97933;-75
2023/10/17 08:52:35;;;;;;;13.00;8.50;;;;;;;10.65;67.40;97742.02;107020;1253;103825;-75
2023/10/17 08:55:02;;;;;;;12.90;9.90;;;;;;;10.54;67.11;97740.81;107296;1253;100951;-75
2023/10/17 08:57:30;;;;;;;16.90;9.10;;;;;;;10.52;67.31;97741.00;107320;1244;99952;-75
2023/10/17 09:00:23;;;;;;;12.30;7.50;;;;;;;10.51;66.88;97736.98;107328;1241;98147;-75
2023/10/17 09:02:56;;;;;;;13.40;7.90;;;;;;;10.48;66.60;97738.35;106930;1247;98006;-75
2023/10/17 09:05:26;;;;;;;15.40;8.70;;;;;;;10.42;66.24;97739.98;107328;1241;103522;-80
2023/10/17 09:07:56;;;;;;;15.50;9.40;;;;;;;10.30;66.14;97741.48;107571;1242;101341;-80
2023/10/17 09:10:36;;;;;;;14.80;10.30;;;;;;;10.26;66.63;97737.73;107913;1239;100434;-80
2023/10/17 09:15:55;;;;;;;13.70;9.40;;;;;;;10.39;66.61;97741.66;107491;1241;98435;-81
2023/10/17 09:18:27;;;;;;;15.50;9.30;;;;;;;10.49;66.24;97738.30;107420;1240;103443;-79
2023/10/17 09:20:58;;;;;;;14.70;9.10;;;;;;;10.54;65.81;97738.70;107802;1233;101530;-82
2023/10/17 09:23:28;;;;;;;15.30;8.80;;;;;;;10.66;65.74;97736.30;107879;1247;99603;-81
2023/10/17 09:26:01;;;;;;;13.20;8.30;;;;;;;10.88;65.62;97737.36;107822;1237;97962;-82
2023/10/17 09:28:28;;;;;;;16.10;7.50;;;;;;;10.98;65.09;97738.30;107622;1241;98336;-82
2023/10/17 09:30:57;;;;;;;13.40;7.00;;;;;;;11.06;64.70;97738.10;107382;1248;98164;-76
2023/10/17 09:33:31;;;;;;;13.00;7.70;;;;;;;11.13;64.15;97737.86;107655;1248;101190;-75
2023/10/17 09:35:59;;;;;;;12.60;7.90;;;;;;;11.16;63.91;97736.52;107917;1245;99952;-76
2023/10/17 09:38:28;;;;;;;9.70;6.90;;;;;;;11.14;63.80;97732.32;107592;1241;97988;-75
2023/10/17 09:41:05;;;;;;;10.00;6.70;;;;;;;11.24;63.63;97735.23;107443;1240;98442;-76
2023/10/17 09:43:31;;;;;;;9.00;5.80;;;;;;;11.28;63.34;97733.74;107892;1233;103384;-77
2023/10/17 09:46:03;;;;;;;9.00;5.10;;;;;;;11.27;62.72;97733.00;107398;1248;98495;-81
2023/10/17 09:48:38;;;;;;;7.20;4.80;;;;;;;11.17;62.17;97733.90;107645;1240;98875;-81
2023/10/17 09:51:05;;;;;;;6.60;4.70;;;;;;;11.13;61.79;97730.91;107878;1247;97892;-81
2023/10/17 09:53:33;;;;;;;9.70;5.50;;;;;;;11.09;61.68;97727.05;107886;1247;99161;-80
2023/10/17 09:56:06;;;;;;;8.30;4.60;;;;;;;11.08;61.57;97727.84;107884;1238;102610;-80
2023/10/17 09:58:38;;;;;;;12.70;6.40;;;;;;;11.04;61.28;97728.83;107899;1238;99875;-80
2023/10/17 10:01:20;;;;;;;13.10;6.60;;;;;;;10.96;60.98;97725.16;107862;1239;98835;-80
2023/10/17 10:03:52;;;;;;;11.80;6.50;;;;;;;10.84;61.18;97718.13;107838;1241;97836;-76
2023/10/17 10:06:23;;;;;;;11.90;7.10;;;;;;;10.77;61.21;97717.81;107953;1238;97860;-77
2023/10/17 10:08:55;;;;;;;14.20;7.40;;;;;;;10.77;60.97;97714.45;107367;1244;103159;-76
2023/10/17 10:11:21;;;;;;;11.40;7.10;;;;;;;10.78;61.06;97710.63;107636;1241;101371;-77
2023/10/17 10:14:08;;;;;;;11.80;6.90;;;;;;;10.79;61.03;97706.56;107872;1235;98247;-77
2023/10/17 10:16:53;;;;;;;10.70;6.10;;;;;;;10.76;60.92;97703.52;107414;1242;99179;-80
2023/10/17 10:19:21;;;;;;;9.70;5.60;;;;;;;10.63;60.69;97708.53;107453;1239;98515;-80
2023/10/17 10:21:59;;;;;;;10.90;5.90;;;;;;;10.58;60.78;97704.74;107908;1237;101920;-76
2023/10/17 10:24:27;;;;;;;7.90;5.30;;;;;;;10.58;60.90;97701.13;107932;1238;101185;-76
2023/10/17 10:27:08;;;;;;;11.30;6.00;;;;;;;10.60;61.05;97697.90;107849;1249;100172;-76
2023/10/17 10:29:35;;;;;;;7.80;4.90;;;;;;;10.58;60.56;97694.77;107852;1236;99234;-76
2023/10/17 10:32:05;;;;;;;8.40;4.90;;;;;;;10.56;60.37;97687.16;107902;1240;97906;-79
2023/10/17 10:34:36;;;;;;;6.30;3.60;;;;;;;10.53;60.09;97685.70;107693;1248;103016;-79
2023/10/17 10:37:04;;;;;;;5.30;3.40;;;;;;;10.50;59.72;97681.72;107873;1238;101125;-80
2023/10/17 10:39:30;;;;;;;4.90;3.40;;;;;;;10.50;59.41;97677.11;107463;1241;98510;-79
2023/10/17 10:41:58;;;;;;;6.40;3.60;;;;;;;10.57;59.02;97675.25;107904;1247;97918;-79
2023/10/17 10:44:26;;;;;;;7.20;3.90;;;;;;;10.66;58.32;97669.23;107911;1238;97943;-79
2023/10/17 10:46:56;;;;;;;9.70;7.00;;;;;;;10.73;57.85;97665.35;107383;1244;102514;-76
2023/10/17 10:49:30;;;;;;;6.60;4.80;;;;;;;10.79;57.77;97661.45;107869;1238;101179;-76
2023/10/17 10:51:58;;;;;;;8.30;3.50;;;;;;;10.85;57.60;97659.22;107856;1241;99825;-76
2023/10/17 10:54:27;;;;;;;5.00;3.10;;;;;;;10.90;57.08;97657.55;107912;1244;99139;-76
2023/10/17 10:56:53;;;;;;;5.40;3.10;;;;;;;10.89;56.75;97651.31;107939;1234;98336;-76
2023/10/17 10:59:23;;;;;;;6.40;3.10;;;;;;;10.84;56.35;97651.11;107940;1238;99142;-76
2023/10/17 11:01:50;;;;;;;5.60;3.30;;;;;;;10.85;56.75;97648.65;107913;1237;100974;-76
2023/10/17 11:04:17;;;;;;;4.70;2.80;;;;;;;11.03;56.11;97644.91;107377;1248;98839;-76
2023/10/17 11:06:45;;;;;;;7.10;3.20;;;;;;;11.22;55.78;97644.70;107611;1249;97993;-75
2023/10/17 11:09:16;;;;;;;5.70;3.40;;;;;;;11.32;55.74;97635.91;107899;1238;99132;-76
2023/10/17 11:11:46;;;;;;;6.40;3.60;;;;;;;11.41;55.24;97634.16;107897;1245;103455;-76
2023/10/17 11:14:16;;;;;;;8.40;3.80;;;;;;;11.58;55.25;97634.11;107849;1248;101325;-76
2023/10/17 11:16:43;;;;;;;7.00;4.10;;;;;;;11.78;54.79;97631.04;107645;1248;99839;-76
2023/10/17 11:19:19;;;;;;;6.60;4.10;;;;;;;11.89;54.40;97626.09;107725;1242;98012;-79
2023/10/17 11:21:57;;;;;;;6.00;3.40;;;;;;;11.98;54.23;97620.11;107430;1241;98346;-81
2023/10/17 11:24:26;;;;;;;5.90;3.50;;;;;;;12.09;53.87;97614.02;107812;1238;103330;-81
2023/10/17 11:26:55;;;;;;;7.40;3.90;;;;;;;12.21;53.67;97616.36;107921;1245;100957;-82
2023/10/17 11:29:26;;;;;;;5.70;4.00;;;;;;;12.31;53.41;97618.86;107884;1248;98851;-81
2023/10/17 11:31:54;;;;;;;4.30;3.20;;;;;;;12.37;53.11;97617.23;107898;1241;98020;-82
2023/10/17 11:34:30;;;;;;;4.40;3.60;;;;;;;12.40;52.54;97618.23;107933;1237;99129;-81
2023/10/17 11:37:02;;;;;;;5.20;3.80;;;;;;;12.35;52.10;97619.71;107884;1247;103128;-81
2023/10/17 11:39:42;;;;;;;6.20;3.60;;;;;;;12.18;51.92;97618.05;107631;1242;108893;-77
2023/10/17 11:42:09;;;;;;;7.50;4.00;;;;;;;12.03;51.86;97614.96;107672;1241;99799;-77
2023/10/17 11:44:42;;;;;;;3.30;2.90;;;;;;;11.96;52.28;97616.58;107917;1237;98349;-76
2023/10/17 11:47:22;;;;;;;4.50;2.80;;;;;;;11.93;52.31;97613.93;107646;1248;98462;-84
2023/10/17 11:49:50;;;;;;;4.80;3.10;;;;;;;11.97;52.34;97617.89;107694;1241;102440;-81
2023/10/17 11:52:17;;;;;;;5.00;3.40;;;;;;;11.98;52.36;97617.72;107924;1241;101695;-80
2023/10/17 11:54:58;;;;;;;4.30;2.80;;;;;;;11.92;52.44;97621.38;107446;1241;98373;-80
2023/10/17 11:57:25;;;;;;;4.50;2.70;;;;;;;11.86;51.81;97618.98;107870;1238;97990;-76
2023/10/17 12:00:06;;;;;;;5.30;3.10;;;;;;;11.83;51.57;97617.99;107916;1236;98395;-76
2023/10/17 12:02:33;;;;;;;8.80;5.70;;;;;;;11.80;51.40;97620.06;107905;1236;103413;-77
2023/10/17 12:05:01;;;;;;;8.00;5.30;;;;;;;11.78;51.59;97617.66;107856;1244;98906;-76
2023/10/17 12:07:29;;;;;;;4.50;3.30;;;;;;;11.76;51.54;97614.95;107260;1248;98631;-77
2023/10/17 12:10:04;;;;;;;3.70;2.90;;;;;;;11.73;51.65;97616.41;107996;1243;97939;-77
2023/10/17 12:12:33;;;;;;;8.20;4.80;;;;;;;11.64;51.84;97615.54;108011;1238;98500;-77
2023/10/17 12:14:59;;;;;;;12.50;6.10;;;;;;;11.63;52.03;97611.21;107780;1235;102733;-77
2023/10/17 12:17:26;;;;;;;10.00;5.80;;;;;;;11.66;52.07;97607.84;107771;1237;98005;-80
2023/10/17 12:19:53;;;;;;;8.80;4.60;;;;;;;11.70;51.88;97605.39;107860;1248;98457;-80
2023/10/17 12:22:19;;;;;;;4.80;3.40;;;;;;;11.71;51.73;97602.00;107984;1236;98026;-80
2023/10/17 12:24:46;;;;;;;6.80;4.00;;;;;;;11.71;51.55;97598.55;107896;1236;102272;-79
2023/10/17 12:27:13;;;;;;;6.30;3.70;;;;;;;11.72;51.50;97594.13;107872;1235;97921;-80
2023/10/17 12:29:40;;;;;;;6.00;4.10;;;;;;;11.68;51.79;97591.70;107873;1236;97939;-80
2023/10/17 12:32:10;;;;;;;6.20;4.30;;;;;;;11.66;52.08;97592.54;107895;1247;98797;-76
2023/10/17 12:34:40;;;;;;;7.10;3.80;;;;;;;11.68;51.99;97593.58;107880;1235;98434;-76
2023/10/17 12:37:10;;;;;;;7.00;4.30;;;;;;;11.69;51.78;97592.41;107836;1235;102335;-76
2023/10/17 12:39:37;;;;;;;8.50;5.20;;;;;;;11.67;52.12;97585.80;107850;1237;101842;-76
2023/10/17 12:42:03;;;;;;;7.60;4.50;;;;;;;11.72;52.47;97581.48;107860;1237;98346;-76
2023/10/17 12:44:31;;;;;;;8.80;4.70;;;;;;;11.80;52.62;97578.24;107902;1238;97914;-76
2023/10/17 12:46:58;;;;;;;8.80;5.70;;;;;;;11.83;52.64;97576.76;107892;1243;98078;-76
2023/10/17 12:49:24;;;;;;;9.80;5.20;;;;;;;11.82;52.72;97576.94;107669;1248;98757;-76
2023/10/17 12:51:52;;;;;;;7.00;4.60;;;;;;;11.73;52.53;97570.91;107989;1239;98047;-76
2023/10/17 12:54:19;;;;;;;8.00;4.40;;;;;;;11.73;52.81;97572.29;107659;1241;98751;-80
2023/10/17 12:56:45;;;;;;;7.80;4.40;;;;;;;11.73;53.27;97569.77;107835;1235;99788;-77
2023/10/17 12:59:12;;;;;;;6.10;4.00;;;;;;;11.75;53.29;97566.05;107865;1246;97894;-76
2023/10/17 13:01:43;;;;;;;10.30;4.70;;;;;;;11.74;53.17;97558.80;107961;1232;98799;-77
2023/10/17 13:04:10;;;;;;;7.70;5.00;;;;;;;11.69;53.05;97558.73;107944;1244;98040;-77